createdAt,value
2023-03-21T00:02:43.186Z,30.86
2023-03-21T00:05:52.206Z,30.15
2023-03-21T00:08:59.169Z,30.04
2023-03-21T00:12:07.572Z,29.15
2023-03-21T00:15:20.590Z,27.41
2023-03-21T00:18:31.844Z,26.42
2023-03-21T00:21:49.135Z,26.61
2023-03-21T00:25:01.765Z,26.57
2023-03-21T00:28:08.936Z,26.24
2023-03-21T00:31:22.427Z,26.68
2023-03-21T00:34:43.107Z,26.18
2023-03-21T00:37:49.793Z,26.50
2023-03-21T00:41:01.928Z,27.57
2023-03-21T00:44:11.738Z,28.15
2023-03-21T00:47:20.724Z,28.76
2023-03-21T00:50:32.578Z,27.55
2023-03-21T00:53:39.353Z,26.94
2023-03-21T00:56:45.210Z,27.36
2023-03-21T00:59:52.036Z,27.41
2023-03-21T01:03:17.896Z,27.37
2023-03-21T01:06:33.469Z,26.97
2023-03-21T01:09:39.443Z,26.73
2023-03-21T01:12:46.609Z,27.28
2023-03-21T01:15:55.895Z,25.03
2023-03-21T01:19:05.223Z,25.27
2023-03-21T01:22:16.375Z,25.07
2023-03-21T01:25:23.610Z,23.86
2023-03-21T01:28:32.223Z,23.91
2023-03-21T01:31:56.069Z,24.21
2023-03-21T01:35:03.291Z,24.72
2023-03-21T01:38:20.731Z,24.74
2023-03-21T01:41:47.744Z,24.54
2023-03-21T01:46:00.695Z,24.97
2023-03-21T01:49:34.532Z,25.71
2023-03-21T01:52:50.280Z,24.91
2023-03-21T01:56:17.119Z,24.56
2023-03-21T02:00:06.582Z,25.52
2023-03-21T02:03:35.353Z,26.49
2023-03-21T02:07:09.096Z,26.57
2023-03-21T02:10:36.741Z,26.43
2023-03-21T02:13:48.741Z,28.37
2023-03-21T02:17:18.065Z,28.64
2023-03-21T02:21:27.087Z,27.49
2023-03-21T02:25:36.742Z,27.55
2023-03-21T02:33:09.980Z,27.42
2023-03-21T02:36:59.507Z,27.40
2023-03-21T02:40:28.261Z,27.26
2023-03-21T02:43:48.612Z,26.89
2023-03-21T02:47:06.468Z,29.05
2023-03-21T02:50:31.093Z,30.66
2023-03-21T02:53:53.338Z,30.55
2023-03-21T02:57:10.658Z,28.17
2023-03-21T03:00:25.061Z,27.69
2023-03-21T03:03:57.113Z,27.92
2023-03-21T03:16:26.034Z,25.23
2023-03-21T03:19:50.665Z,24.95
2023-03-21T03:23:13.916Z,25.12
2023-03-21T03:26:29.968Z,25.28
2023-03-21T03:29:45.567Z,24.15
2023-03-21T03:33:06.685Z,24.02
2023-03-21T03:36:31.582Z,23.19
2023-03-21T03:39:54.710Z,22.76
2023-03-21T03:43:11.475Z,22.75
2023-03-21T03:46:28.455Z,21.77
2023-03-21T03:49:51.561Z,22.87
2023-03-21T03:53:16.383Z,22.71
2023-03-21T03:56:31.949Z,23.75
2023-03-21T03:59:40.774Z,24.83
2023-03-21T04:03:07.484Z,26.54
2023-03-21T04:06:16.580Z,28.76
2023-03-21T04:09:34.020Z,29.94
2023-03-21T04:12:43.403Z,31.93
2023-03-21T04:16:00.378Z,32.90
2023-03-21T04:19:06.792Z,34.00
2023-03-21T04:22:17.279Z,35.06
2023-03-21T04:25:34.000Z,35.31
2023-03-21T04:28:43.201Z,33.92
2023-03-21T04:32:02.109Z,34.01
2023-03-21T04:35:12.371Z,35.98
2023-03-21T04:38:21.140Z,36.31
2023-03-21T04:41:28.336Z,36.46
2023-03-21T04:44:34.692Z,36.38
2023-03-21T04:47:42.783Z,34.95
2023-03-21T04:50:49.721Z,35.53
2023-03-21T04:54:01.307Z,34.80
2023-03-21T04:57:08.176Z,35.75
2023-03-21T05:00:17.661Z,36.58
2023-03-21T05:03:23.882Z,38.84
2023-03-21T05:06:33.101Z,41.14
2023-03-21T05:09:44.684Z,42.92
2023-03-21T05:20:36.532Z,48.02
2023-03-21T05:25:05.319Z,34.74
2023-03-21T05:28:56.830Z,30.97
2023-03-21T05:32:05.957Z,27.20
2023-03-21T05:35:20.393Z,27.08
2023-03-21T05:38:33.745Z,33.22
2023-03-21T05:41:43.540Z,38.38
2023-03-21T05:45:05.634Z,39.40
2023-03-21T05:48:14.031Z,39.92
2023-03-21T05:51:39.632Z,36.66
2023-03-21T05:54:50.244Z,38.45
2023-03-21T05:58:04.286Z,39.75
2023-03-21T06:01:17.545Z,40.97
2023-03-21T06:04:32.245Z,45.73
2023-03-21T06:07:38.852Z,46.40
2023-03-21T06:10:49.769Z,53.28
2023-03-21T06:14:05.438Z,47.21
2023-03-21T06:17:16.938Z,43.92
2023-03-21T06:20:30.588Z,41.91
2023-03-21T06:23:45.273Z,40.48
2023-03-21T06:26:51.741Z,40.23
2023-03-21T06:30:01.823Z,41.63
2023-03-21T06:33:22.024Z,39.48
2023-03-21T06:36:29.136Z,30.69
2023-03-21T06:39:36.037Z,27.24
2023-03-21T06:42:42.991Z,24.38
2023-03-21T06:45:50.457Z,23.83
2023-03-21T06:48:59.995Z,26.11
2023-03-21T06:52:08.748Z,26.23
2023-03-21T06:55:15.577Z,25.52
2023-03-21T06:58:22.363Z,24.50
2023-03-21T07:01:30.732Z,24.04
2023-03-21T07:04:45.935Z,25.64
2023-03-21T07:07:57.746Z,21.85
2023-03-21T07:11:07.316Z,22.19
2023-03-21T07:14:17.605Z,20.35
2023-03-21T07:17:23.444Z,21.62
2023-03-21T07:20:33.974Z,23.14
2023-03-21T07:23:42.220Z,23.69
2023-03-21T07:26:49.322Z,24.58
2023-03-21T07:29:55.042Z,25.70
2023-03-21T07:33:01.695Z,28.34
2023-03-21T07:36:15.660Z,29.73
2023-03-21T07:39:23.734Z,32.67
2023-03-21T07:42:33.802Z,30.52
2023-03-21T07:45:41.106Z,31.62
2023-03-21T07:48:47.181Z,32.26
2023-03-21T07:51:56.341Z,32.31
2023-03-21T07:55:02.142Z,33.62
2023-03-21T07:58:13.146Z,35.26
2023-03-21T08:01:19.045Z,33.06
2023-03-21T08:04:26.153Z,34.01
2023-03-21T08:07:37.887Z,34.10
2023-03-21T08:10:47.004Z,34.89
2023-03-21T08:13:54.092Z,33.83
2023-03-21T08:17:01.004Z,32.10
2023-03-21T08:20:12.183Z,31.29
2023-03-21T08:23:22.581Z,29.26
2023-03-21T08:26:28.678Z,29.81
2023-03-21T08:29:40.535Z,28.66
2023-03-21T08:32:50.328Z,30.09
2023-03-21T08:36:02.352Z,29.24
2023-03-21T08:39:11.942Z,28.71
2023-03-21T08:42:18.590Z,28.50
2023-03-21T08:45:25.781Z,28.61
2023-03-21T08:48:33.087Z,29.13
2023-03-21T08:51:41.520Z,28.79
2023-03-21T08:54:51.022Z,28.03
2023-03-21T08:57:58.305Z,29.06
2023-03-21T09:01:05.371Z,28.54
2023-03-21T09:04:11.449Z,28.72
2023-03-21T09:07:18.242Z,31.78
2023-03-21T09:10:27.370Z,32.35
2023-03-21T09:13:34.204Z,30.50
2023-03-21T09:16:40.061Z,29.89
2023-03-21T09:19:47.336Z,29.96
2023-03-21T09:22:55.071Z,30.56
2023-03-21T09:26:04.500Z,32.32
2023-03-21T09:29:10.291Z,31.87
2023-03-21T09:32:17.679Z,32.17
2023-03-21T09:35:24.908Z,32.67
2023-03-21T09:38:37.731Z,31.85
2023-03-21T09:42:08.450Z,31.65
2023-03-21T09:45:27.328Z,34.88
2023-03-21T09:48:57.139Z,28.90
2023-03-21T09:52:16.366Z,29.66
2023-03-21T09:55:31.154Z,28.34
2023-03-21T09:58:53.062Z,27.98
2023-03-21T10:02:03.422Z,29.49
2023-03-21T10:05:22.824Z,29.64
2023-03-21T10:08:36.763Z,30.85
2023-03-21T10:11:50.607Z,30.90
2023-03-21T10:15:05.522Z,30.79
2023-03-21T10:18:24.418Z,32.75
2023-03-21T10:21:58.676Z,32.24
2023-03-21T10:24:59.497Z,32.01
2023-03-21T10:28:10.461Z,32.18
2023-03-21T10:31:27.231Z,31.70
2023-03-21T10:34:41.059Z,33.02
2023-03-21T10:37:50.396Z,34.38
2023-03-21T10:40:57.404Z,34.86
2023-03-21T10:44:14.983Z,34.41
2023-03-21T10:47:29.841Z,34.37
2023-03-21T10:50:38.789Z,35.12
2023-03-21T10:53:54.678Z,34.79
2023-03-21T10:57:08.843Z,33.20
2023-03-21T11:00:25.882Z,30.16
2023-03-21T11:03:44.797Z,29.64
2023-03-21T11:06:58.213Z,34.79
2023-03-21T11:10:23.035Z,31.78
2023-03-21T11:13:41.581Z,33.23
2023-03-21T11:16:48.331Z,35.70
2023-03-21T11:20:00.877Z,31.26
2023-03-21T11:23:09.627Z,29.02
2023-03-21T11:26:26.341Z,28.47
2023-03-21T11:29:39.021Z,29.11
2023-03-21T11:32:46.473Z,29.85
2023-03-21T11:36:08.292Z,31.27
2023-03-21T11:39:34.154Z,32.01
2023-03-21T11:42:49.797Z,54.85
2023-03-21T11:46:01.775Z,87.26
2023-03-21T11:49:08.618Z,81.38
2023-03-21T11:52:34.992Z,37.41
2023-03-21T11:56:01.588Z,33.18
2023-03-21T11:59:44.161Z,30.25
2023-03-21T12:03:17.737Z,31.67
2023-03-21T12:06:36.197Z,38.14
2023-03-21T12:09:58.600Z,34.23
2023-03-21T12:13:29.508Z,32.24
2023-03-21T12:16:57.154Z,31.99
2023-03-21T12:20:36.576Z,32.45
2023-03-21T12:24:05.084Z,32.49
2023-03-21T12:27:37.279Z,30.94
2023-03-21T12:30:57.758Z,33.27
2023-03-21T12:34:25.171Z,31.73
2023-03-21T12:37:46.396Z,31.63
2023-03-21T12:41:14.533Z,29.46
2023-03-21T12:44:29.731Z,33.31
2023-03-21T12:47:39.326Z,32.01
2023-03-21T12:50:51.311Z,31.95
2023-03-21T12:54:12.503Z,37.20
2023-03-21T12:57:26.303Z,32.52
2023-03-21T13:00:44.744Z,32.09
2023-03-21T13:04:10.882Z,33.06
2023-03-21T13:07:26.641Z,32.38
2023-03-21T13:10:36.489Z,35.15
2023-03-21T13:13:52.730Z,32.47
2023-03-21T13:17:13.838Z,29.09
2023-03-21T13:20:33.522Z,28.67
2023-03-21T13:23:42.563Z,26.76
2023-03-21T13:26:55.845Z,26.32
2023-03-21T13:30:06.755Z,27.02
2023-03-21T13:33:24.239Z,26.52
2023-03-21T13:36:34.711Z,28.02
2023-03-21T13:39:49.954Z,26.06
2023-03-21T13:43:03.829Z,25.38
2023-03-21T13:46:13.458Z,23.96
2023-03-21T13:49:36.311Z,23.75
2023-03-21T13:52:42.140Z,26.44
2023-03-21T13:56:01.059Z,25.80
2023-03-21T13:59:12.827Z,19.93
2023-03-21T14:02:33.758Z,18.09
2023-03-21T14:05:43.314Z,20.91
2023-03-21T14:08:52.818Z,22.52
2023-03-21T14:12:07.420Z,22.09
2023-03-21T14:15:24.467Z,22.88
2023-03-21T14:22:03.642Z,22.15
2023-03-21T14:25:16.784Z,100.93
2023-03-21T14:28:28.200Z,200.28
2023-03-21T14:31:35.705Z,26.55
2023-03-21T14:34:43.482Z,24.18
2023-03-21T14:37:52.227Z,26.11
2023-03-21T14:41:00.143Z,43.40
2023-03-21T14:44:25.911Z,23.52
2023-03-21T14:47:36.803Z,34.43
2023-03-21T14:50:51.058Z,33.81
2023-03-21T14:54:01.274Z,30.08
2023-03-21T14:57:16.431Z,34.73
2023-03-21T15:00:29.504Z,76.76
2023-03-21T15:03:38.076Z,100.26
2023-03-21T15:07:02.057Z,32.73
2023-03-21T15:10:19.405Z,27.64
2023-03-21T15:13:33.237Z,32.50
2023-03-21T15:16:41.443Z,33.68
2023-03-21T15:19:48.413Z,51.25
2023-03-21T15:23:00.727Z,32.32
2023-03-21T15:26:10.969Z,54.31
2023-03-21T15:29:19.727Z,83.41
2023-03-21T15:32:31.251Z,133.14
2023-03-21T15:35:43.844Z,47.64
2023-03-21T15:38:51.802Z,54.26
2023-03-21T15:42:08.028Z,65.65
2023-03-21T15:45:25.755Z,62.87
2023-03-21T15:48:36.958Z,70.45
2023-03-21T15:51:49.150Z,40.50
2023-03-21T15:54:59.443Z,36.29
2023-03-21T15:58:19.158Z,33.76
2023-03-21T16:01:29.111Z,28.67
2023-03-21T16:04:35.900Z,27.87
2023-03-21T16:07:50.237Z,37.44
2023-03-21T16:11:11.640Z,41.76
2023-03-21T16:14:20.898Z,54.13
2023-03-21T16:17:37.845Z,63.42
2023-03-21T16:20:49.269Z,42.81
2023-03-21T16:23:56.282Z,35.47
2023-03-21T16:27:03.256Z,28.52
2023-03-21T16:30:18.272Z,32.54
2023-03-21T16:33:25.528Z,31.53
2023-03-21T16:36:36.639Z,31.75
2023-03-21T16:39:42.650Z,38.18
2023-03-21T16:42:49.256Z,38.10
2023-03-21T16:45:57.784Z,26.47
2023-03-21T16:49:04.505Z,27.95
2023-03-21T16:52:16.797Z,31.53
2023-03-21T16:55:23.997Z,35.30
2023-03-21T16:58:29.872Z,30.56
2023-03-21T17:01:41.541Z,32.26
2023-03-21T17:04:49.708Z,32.35
2023-03-21T17:07:57.114Z,44.52
2023-03-21T17:11:06.443Z,69.41
2023-03-21T17:14:17.000Z,62.46
2023-03-21T17:17:25.390Z,93.62
2023-03-21T17:20:40.416Z,130.63
2023-03-21T17:23:47.786Z,116.89
2023-03-21T17:26:56.095Z,104.06
2023-03-21T17:30:02.433Z,86.06
2023-03-21T17:33:12.314Z,68.84
2023-03-21T17:36:22.874Z,67.01
2023-03-21T17:39:32.306Z,70.70
2023-03-21T17:42:38.482Z,79.32
2023-03-21T17:45:48.404Z,80.57
2023-03-21T17:48:59.114Z,77.03
2023-03-21T17:52:11.628Z,75.26
2023-03-21T17:55:21.438Z,66.61
2023-03-21T17:58:31.967Z,60.70
2023-03-21T18:01:38.236Z,85.41
2023-03-21T18:04:47.620Z,83.85
2023-03-21T18:08:09.419Z,55.01
2023-03-21T18:11:23.009Z,60.01
2023-03-21T18:14:30.291Z,57.97
2023-03-21T18:17:40.413Z,61.79
2023-03-21T18:20:54.045Z,58.83
2023-03-21T18:24:01.562Z,59.28
2023-03-21T18:27:08.806Z,53.22
2023-03-21T18:30:44.335Z,54.44
2023-03-21T18:33:51.406Z,57.72
2023-03-21T18:37:03.851Z,52.33
2023-03-21T18:40:13.988Z,50.61
2023-03-21T18:46:50.722Z,48.67
2023-03-21T18:50:13.333Z,48.12
2023-03-21T18:53:24.749Z,47.98
2023-03-21T18:57:31.752Z,47.71
2023-03-21T18:59:59.080Z,49.15
2023-03-21T19:03:22.172Z,52.07
2023-03-21T23:01:07.190Z,81.51
2023-03-21T23:04:14.469Z,77.14
2023-03-21T23:07:21.006Z,80.24
2023-03-21T23:10:28.296Z,78.90
2023-03-21T23:13:34.626Z,78.73
2023-03-21T23:16:45.419Z,83.52
2023-03-21T23:19:52.997Z,82.20
2023-03-21T23:23:00.661Z,84.01
2023-03-21T23:26:07.151Z,89.63
2023-03-21T23:29:15.367Z,78.14
2023-03-21T23:32:24.813Z,81.99
2023-03-21T23:35:35.582Z,79.95
2023-03-21T23:38:44.529Z,71.97
